Time;durP1;ratioP1;P1;durP2;ratioP2;P2;SDS_P1;SDS_P2;PMS_P1;PMS_P2;Temp;Humidity;BMP_temperature;BMP_pressure;BME280_temperature;BME280_humidity;BME280_pressure;Samples;Min_cycle;Max_cycle;Signal;HPM_P1;HPM_P2
2022/06/28 00:00:55;;;;;;;0.77;0.52;;;;;;;12.00;100.00;100111.75;4964597;28;20034;-78
2022/06/28 00:03:23;;;;;;;0.30;0.30;;;;;;;12.01;100.00;100116.94;4954329;28;20436;-80
2022/06/28 00:05:55;;;;;;;0.52;0.52;;;;;;;12.03;100.00;100100.56;4983895;28;20060;-80
2022/06/28 00:08:20;;;;;;;0.30;0.30;;;;;;;12.03;100.00;100096.00;4984748;28;20035;-80
2022/06/28 00:10:47;;;;;;;1.13;0.70;;;;;;;11.84;100.00;100040.16;4951230;28;20042;-81
2022/06/28 00:13:13;;;;;;;0.52;0.47;;;;;;;12.05;100.00;100068.88;4967856;28;20121;-80
2022/06/28 00:18:25;;;;;;;0.70;0.70;;;;;;;12.03;100.00;100060.97;4973694;28;20421;-80
2022/06/28 00:20:51;;;;;;;0.30;0.30;;;;;;;12.08;100.00;100071.97;4950906;28;20042;-80
2022/06/28 00:23:17;;;;;;;0.40;0.40;;;;;;;12.03;100.00;100060.16;4977012;28;21076;-79
2022/06/28 00:25:43;;;;;;;3.60;0.88;;;;;;;12.07;100.00;100037.16;4948657;28;20042;-78
2022/06/28 00:28:08;;;;;;;0.85;0.63;;;;;;;12.05;100.00;100048.13;4979948;28;20483;-78
2022/06/28 00:30:34;;;;;;;0.55;0.40;;;;;;;12.03;100.00;100046.66;4980911;28;20038;-79
2022/06/28 00:32:59;;;;;;;0.98;0.65;;;;;;;12.08;100.00;100036.13;4968647;28;20595;-79
2022/06/28 00:35:25;;;;;;;0.30;0.30;;;;;;;12.08;100.00;100042.34;4964539;28;20042;-80
2022/06/28 00:37:51;;;;;;;0.68;0.50;;;;;;;12.11;100.00;100035.72;4972078;28;20118;-79
2022/06/28 00:40:16;;;;;;;0.40;0.40;;;;;;;12.11;100.00;100019.53;4953876;28;20041;-78
2022/06/28 00:42:42;;;;;;;0.30;0.30;;;;;;;12.13;100.00;100038.22;4963904;28;20042;-80
2022/06/28 00:45:08;;;;;;;0.40;0.40;;;;;;;12.13;100.00;100033.66;4983811;28;20088;-79
2022/06/28 00:47:34;;;;;;;0.50;0.50;;;;;;;12.17;100.00;100005.28;4954186;28;20042;-79
2022/06/28 00:50:01;;;;;;;0.30;0.30;;;;;;;12.16;100.00;100017.06;4971529;28;20034;-80
2022/06/28 00:52:27;;;;;;;0.30;0.30;;;;;;;12.18;100.00;100017.69;4984298;28;20137;-78
2022/06/28 00:54:53;;;;;;;0.30;0.30;;;;;;;12.20;100.00;100004.84;4982950;28;20633;-79
2022/06/28 00:57:19;;;;;;;0.35;0.35;;;;;;;12.21;100.00;100002.97;4981281;28;20030;-79
2022/06/28 00:59:44;;;;;;;0.30;0.30;;;;;;;12.15;100.00;99966.09;4984494;28;20042;-80
2022/06/28 01:02:10;;;;;;;0.30;0.30;;;;;;;12.19;100.00;99983.47;4979196;28;20050;-78
2022/06/28 01:04:36;;;;;;;0.30;0.30;;;;;;;12.14;100.00;99970.63;4972816;28;20038;-79
2022/06/28 01:07:02;;;;;;;0.40;0.40;;;;;;;12.22;100.00;99997.38;4948922;28;20030;-79
2022/06/28 01:09:27;;;;;;;0.30;0.30;;;;;;;12.27;100.00;99989.50;4969051;28;20037;-80
2022/06/28 01:11:53;;;;;;;0.20;0.20;;;;;;;12.30;100.00;99993.66;4985227;28;20034;-79
2022/06/28 01:14:18;;;;;;;0.30;0.30;;;;;;;12.32;100.00;100000.50;4968645;28;20034;-80
2022/06/28 01:16:45;;;;;;;0.43;0.40;;;;;;;12.34;100.00;99975.22;4953453;28;20034;-79
2022/06/28 01:19:11;;;;;;;0.30;0.30;;;;;;;12.36;100.00;99976.66;4965921;28;20055;-80
2022/06/28 01:21:37;;;;;;;0.38;0.38;;;;;;;12.30;100.00;99964.00;4985095;28;20038;-79
2022/06/28 01:24:04;;;;;;;0.40;0.40;;;;;;;12.37;100.00;99961.31;4971524;28;20034;-81
2022/06/28 01:26:31;;;;;;;0.63;0.52;;;;;;;12.40;100.00;99963.59;4957376;28;20042;-80
2022/06/28 01:28:57;;;;;;;0.38;0.30;;;;;;;12.38;100.00;99947.63;4971623;28;20038;-79
2022/06/28 01:31:23;;;;;;;0.40;0.40;;;;;;;12.40;100.00;99936.63;4984888;28;20503;-80
2022/06/28 01:33:53;;;;;;;0.30;0.30;;;;;;;12.41;100.00;99932.91;4952986;28;20489;-79
2022/06/28 01:36:19;;;;;;;0.30;0.30;;;;;;;12.42;100.00;99930.00;4965690;28;20030;-81
2022/06/28 01:38:46;;;;;;;0.38;0.38;;;;;;;12.45;100.00;99926.06;4965601;28;20030;-79
2022/06/28 01:41:53;;;;;;;0.82;0.40;;;;;;;12.47;100.00;99926.69;4996133;28;20109;-81
2022/06/28 01:44:03;;;;;;;0.30;0.30;;;;;;;12.46;100.00;99919.63;4975288;28;20049;-80
2022/06/28 01:46:29;;;;;;;0.40;0.40;;;;;;;12.51;100.00;99927.91;4947886;28;20068;-81
2022/06/28 01:48:55;;;;;;;0.40;0.40;;;;;;;12.47;100.00;99924.81;4953994;28;20491;-79
2022/06/28 01:51:22;;;;;;;0.30;0.30;;;;;;;12.54;100.00;99933.75;4969886;28;20045;-79
2022/06/28 01:53:48;;;;;;;0.30;0.30;;;;;;;12.53;100.00;99934.75;4967733;28;20114;-78
2022/06/28 01:56:15;;;;;;;0.40;0.40;;;;;;;12.57;100.00;99931.63;4985579;28;20121;-79
2022/06/28 01:58:41;;;;;;;0.68;0.60;;;;;;;12.54;100.00;99927.50;4987992;28;20084;-80
2022/06/28 02:01:07;;;;;;;0.30;0.30;;;;;;;12.49;100.00;99930.84;4951322;28;20042;-79
2022/06/28 02:03:33;;;;;;;0.50;0.50;;;;;;;12.46;100.00;99925.00;4966586;28;20033;-79
2022/06/28 02:05:59;;;;;;;0.30;0.30;;;;;;;12.44;100.00;99924.41;4956682;28;20050;-79
2022/06/28 02:08:25;;;;;;;0.85;0.63;;;;;;;12.43;100.00;99926.25;4974098;28;20432;-81
2022/06/28 02:10:51;;;;;;;0.40;0.40;;;;;;;12.43;100.00;99914.66;4980313;28;20037;-81
2022/06/28 02:13:16;;;;;;;0.30;0.30;;;;;;;12.44;100.00;99905.53;4974764;28;20483;-79
2022/06/28 02:15:42;;;;;;;0.30;0.30;;;;;;;12.45;100.00;99904.50;4951532;28;20097;-79
2022/06/28 02:18:07;;;;;;;0.30;0.30;;;;;;;12.41;100.00;99892.44;4978195;28;20089;-80
2022/06/28 02:20:33;;;;;;;0.30;0.30;;;;;;;12.45;100.00;99897.22;4968037;28;20038;-79
2022/06/28 02:22:59;;;;;;;0.50;0.50;;;;;;;12.44;100.00;99895.59;4990514;28;20435;-78
2022/06/28 02:25:30;;;;;;;0.30;0.30;;;;;;;12.45;100.00;99891.84;4979139;28;20042;-80
2022/06/28 02:27:55;;;;;;;0.60;0.60;;;;;;;12.48;100.00;99885.19;4972575;28;20506;-80
2022/06/28 02:30:21;;;;;;;0.40;0.40;;;;;;;12.46;100.00;99882.72;4989535;28;20034;-80
2022/06/28 02:32:47;;;;;;;0.40;0.40;;;;;;;12.46;100.00;99880.03;4972464;28;20026;-79
2022/06/28 02:40:41;;;;;;;0.40;0.40;;;;;;;12.47;100.00;99873.59;4982781;28;20031;-80
2022/06/28 02:43:06;;;;;;;0.30;0.30;;;;;;;12.46;100.00;99849.53;4981392;28;20093;-80
2022/06/28 02:45:34;;;;;;;0.30;0.30;;;;;;;12.47;100.00;99861.97;4984358;28;20774;-80
2022/06/28 02:48:00;;;;;;;0.32;0.32;;;;;;;12.48;100.00;99859.06;4986572;28;20443;-81
2022/06/28 02:50:26;;;;;;;0.50;0.50;;;;;;;12.47;100.00;99852.00;4972225;28;20058;-79
2022/06/28 02:52:51;;;;;;;0.30;0.30;;;;;;;12.49;100.00;99846.41;4984583;28;20500;-78
2022/06/28 02:55:17;;;;;;;0.30;0.30;;;;;;;12.50;100.00;99839.97;4969284;28;20038;-80
2022/06/28 02:57:43;;;;;;;0.30;0.30;;;;;;;12.51;100.00;99837.06;4982719;28;20038;-79
2022/06/28 03:00:11;;;;;;;0.47;0.47;;;;;;;12.51;100.00;99826.28;4969240;28;20543;-81
2022/06/28 03:02:38;;;;;;;0.30;0.30;;;;;;;12.31;100.00;99788.59;4981422;28;20030;-82
2022/06/28 03:05:06;;;;;;;0.30;0.30;;;;;;;12.51;100.00;99818.19;4954345;28;20073;-78
2022/06/28 03:07:32;;;;;;;0.50;0.50;;;;;;;12.52;100.00;99808.25;4970065;28;20053;-80
2022/06/28 03:09:57;;;;;;;0.30;0.30;;;;;;;12.53;100.00;99807.19;4955456;28;20479;-79
2022/06/28 03:12:23;;;;;;;0.30;0.30;;;;;;;12.52;100.00;99805.56;4967781;28;20050;-80
2022/06/28 03:14:48;;;;;;;0.35;0.35;;;;;;;12.56;100.00;99804.06;4965831;28;20101;-80
2022/06/28 03:17:14;;;;;;;0.40;0.40;;;;;;;12.56;100.00;99789.78;4969416;28;20031;-80
2022/06/28 03:19:40;;;;;;;0.30;0.30;;;;;;;12.56;100.00;99784.38;4968267;28;20136;-81
2022/06/28 03:22:05;;;;;;;0.40;0.40;;;;;;;12.54;100.00;99777.34;4989729;28;20030;-80
2022/06/28 03:24:37;;;;;;;0.30;0.30;;;;;;;12.56;100.00;99773.59;4966965;28;20109;-78
2022/06/28 03:27:03;;;;;;;0.20;0.20;;;;;;;12.55;100.00;99767.38;4971271;28;20042;-79
2022/06/28 03:29:28;;;;;;;0.40;0.40;;;;;;;12.59;100.00;99765.06;4964389;28;20401;-80
2022/06/28 03:31:54;;;;;;;0.45;0.40;;;;;;;12.59;100.00;99773.16;4953774;28;20034;-79
2022/06/28 03:34:20;;;;;;;0.30;0.30;;;;;;;12.54;100.00;99763.00;4972218;28;20034;-81
2022/06/28 03:36:50;;;;;;;0.40;0.40;;;;;;;12.63;100.00;99750.13;4974691;28;20030;-79
2022/06/28 03:39:17;;;;;;;0.85;0.68;;;;;;;12.63;100.00;99752.81;4954549;28;20050;-80
2022/06/28 03:41:43;;;;;;;0.30;0.30;;;;;;;12.64;100.00;99743.69;4968295;28;20063;-78
2022/06/28 03:44:08;;;;;;;0.40;0.40;;;;;;;12.54;100.00;99733.34;4946827;28;20078;-80
2022/06/28 03:46:34;;;;;;;0.20;0.20;;;;;;;12.66;100.00;99755.91;4946739;28;20057;-81
2022/06/28 03:49:00;;;;;;;0.32;0.32;;;;;;;12.64;100.00;99735.59;4983771;28;20037;-79
2022/06/28 03:51:26;;;;;;;0.30;0.30;;;;;;;12.72;100.00;99735.34;4981120;28;20062;-81
2022/06/28 03:53:51;;;;;;;0.30;0.30;;;;;;;12.71;100.00;99733.69;4982993;28;20274;-79
2022/06/28 03:56:17;;;;;;;0.30;0.30;;;;;;;12.72;100.00;99719.97;4966678;28;20089;-79
2022/06/28 03:58:43;;;;;;;0.30;0.30;;;;;;;12.67;100.00;99727.88;4961985;28;20026;-77
2022/06/28 04:01:08;;;;;;;0.30;0.30;;;;;;;12.72;100.00;99732.66;4962559;28;20037;-79
2022/06/28 04:03:34;;;;;;;0.30;0.30;;;;;;;12.73;100.00;99723.53;4988365;28;20038;-81
2022/06/28 04:06:01;;;;;;;0.30;0.30;;;;;;;12.71;100.00;99723.75;4986000;28;20038;-80
2022/06/28 04:08:26;;;;;;;0.30;0.30;;;;;;;12.76;100.00;99726.63;4965982;28;20416;-80
2022/06/28 04:13:38;;;;;;;0.30;0.30;;;;;;;12.80;100.00;99716.22;4981062;28;20027;-79
2022/06/28 04:16:04;;;;;;;0.40;0.40;;;;;;;12.84;100.00;99712.06;4979712;28;20510;-81
2022/06/28 04:18:29;;;;;;;0.30;0.30;;;;;;;12.84;100.00;99703.13;4948545;28;20133;-81
2022/06/28 04:20:56;;;;;;;0.40;0.40;;;;;;;12.88;100.00;99718.66;4978900;28;20130;-80
2022/06/28 04:23:21;;;;;;;0.30;0.30;;;;;;;12.89;100.00;99720.34;4967935;28;20124;-81
2022/06/28 04:25:47;;;;;;;0.30;0.30;;;;;;;12.90;100.00;99721.16;4987273;28;20429;-79
2022/06/28 04:28:13;;;;;;;0.20;0.20;;;;;;;12.91;100.00;99712.00;4984677;28;20044;-80
2022/06/28 04:30:38;;;;;;;0.35;0.35;;;;;;;12.90;100.00;99707.66;4979376;28;20093;-80
2022/06/28 04:33:04;;;;;;;0.40;0.40;;;;;;;12.90;100.00;99702.25;4983267;28;20069;-81
2022/06/28 04:35:29;;;;;;;0.80;0.40;;;;;;;12.91;100.00;99693.13;4970800;28;20392;-78
2022/06/28 04:37:55;;;;;;;0.70;0.52;;;;;;;12.88;100.00;99698.94;4987503;28;20092;-80
2022/06/28 04:40:21;;;;;;;0.68;0.60;;;;;;;12.88;100.00;99688.97;4970120;28;20113;-80
2022/06/28 04:42:46;;;;;;;0.45;0.40;;;;;;;12.91;100.00;99693.97;4982856;28;20034;-79
2022/06/28 04:45:12;;;;;;;0.35;0.35;;;;;;;12.94;100.00;99698.09;4981531;28;20047;-78
2022/06/28 04:47:37;;;;;;;0.30;0.30;;;;;;;12.95;100.00;99686.25;4979129;28;20026;-79
2022/06/28 04:50:03;;;;;;;0.40;0.40;;;;;;;12.97;100.00;99694.97;4951278;28;20035;-80
2022/06/28 04:52:29;;;;;;;0.30;0.30;;;;;;;12.97;100.00;99694.97;4985630;28;20388;-80
2022/06/28 04:54:54;;;;;;;0.30;0.30;;;;;;;13.00;100.00;99696.41;4968431;28;20116;-80
2022/06/28 04:57:20;;;;;;;0.43;0.40;;;;;;;12.98;100.00;99723.59;4983325;28;20042;-80
2022/06/28 04:59:46;;;;;;;0.20;0.20;;;;;;;12.94;100.00;99722.38;4964762;28;20503;-80
2022/06/28 05:02:11;;;;;;;0.30;0.30;;;;;;;12.78;100.00;99721.03;4962744;28;20392;-81
2022/06/28 05:04:37;;;;;;;0.32;0.32;;;;;;;12.63;100.00;99717.78;4963975;28;20026;-80
2022/06/28 05:07:03;;;;;;;0.30;0.30;;;;;;;12.57;100.00;99711.38;4975848;28;20038;-78
2022/06/28 05:09:28;;;;;;;0.30;0.30;;;;;;;12.49;100.00;99712.44;4967738;28;20411;-80
2022/06/28 05:11:54;;;;;;;0.40;0.40;;;;;;;12.43;100.00;99705.19;4969725;28;20045;-81
2022/06/28 05:14:19;;;;;;;0.30;0.30;;;;;;;12.42;100.00;99716.19;4969293;28;20042;-80
2022/06/28 05:16:45;;;;;;;0.30;0.30;;;;;;;12.51;100.00;99718.41;4986814;28;20888;-79
2022/06/28 05:19:11;;;;;;;0.30;0.30;;;;;;;12.60;100.00;99715.50;4982679;28;20184;-79
2022/06/28 05:21:37;;;;;;;0.30;0.30;;;;;;;12.57;100.00;99713.22;4981825;28;20480;-80
2022/06/28 05:24:03;;;;;;;0.30;0.30;;;;;;;12.61;100.00;99703.66;4976025;28;20120;-80
2022/06/28 05:26:29;;;;;;;0.30;0.30;;;;;;;12.65;100.00;99684.16;4969661;28;20049;-81
2022/06/28 05:28:54;;;;;;;0.40;0.40;;;;;;;12.80;100.00;99689.25;4955283;28;20046;-80
2022/06/28 05:31:20;;;;;;;0.30;0.30;;;;;;;12.87;100.00;99678.41;4986732;28;20420;-81
2022/06/28 05:33:46;;;;;;;0.30;0.30;;;;;;;12.89;100.00;99701.44;4973166;28;20038;-78
2022/06/28 05:36:11;;;;;;;0.30;0.30;;;;;;;12.78;100.00;99704.84;4990203;28;20396;-80
2022/06/28 05:38:37;;;;;;;0.30;0.30;;;;;;;12.68;100.00;99701.78;4987050;28;20070;-81
2022/06/28 05:41:02;;;;;;;0.30;0.30;;;;;;;12.68;100.00;99696.38;4969160;28;20045;-80
2022/06/28 05:43:28;;;;;;;0.30;0.30;;;;;;;12.67;100.00;99695.53;4971155;28;20054;-79
2022/06/28 05:45:54;;;;;;;0.30;0.30;;;;;;;12.66;100.00;99701.97;4970508;28;20045;-80
2022/06/28 05:48:19;;;;;;;0.30;0.30;;;;;;;12.62;100.00;99708.84;4983932;28;20404;-81
2022/06/28 05:50:47;;;;;;;0.30;0.30;;;;;;;12.53;100.00;99715.53;4974569;28;20029;-80
2022/06/28 05:53:13;;;;;;;0.30;0.30;;;;;;;12.60;100.00;99710.94;4988022;28;20113;-81
2022/06/28 05:55:39;;;;;;;0.30;0.30;;;;;;;12.66;100.00;99710.06;4989785;28;20100;-81
2022/06/28 05:58:07;;;;;;;0.30;0.30;;;;;;;12.74;100.00;99712.50;4973566;28;20042;-80
2022/06/28 06:00:34;;;;;;;0.32;0.32;;;;;;;13.00;100.00;99705.31;4990116;28;20084;-82
2022/06/28 06:03:00;;;;;;;0.30;0.30;;;;;;;13.36;100.00;99703.84;4975261;28;20034;-82
2022/06/28 06:05:26;;;;;;;0.30;0.30;;;;;;;13.51;100.00;99692.72;4990370;28;20121;-80
2022/06/28 06:07:51;;;;;;;0.30;0.30;;;;;;;13.50;100.00;99702.69;4955425;28;20129;-80
2022/06/28 06:10:17;;;;;;;0.30;0.30;;;;;;;13.40;100.00;99688.84;4987951;28;20232;-79
2022/06/28 06:12:42;;;;;;;0.30;0.30;;;;;;;13.21;100.00;99690.66;4971928;28;20746;-82
2022/06/28 06:15:08;;;;;;;0.30;0.30;;;;;;;13.26;100.00;99688.16;4964575;28;20499;-82
2022/06/28 06:17:34;;;;;;;0.30;0.30;;;;;;;13.41;100.00;99679.69;4947318;28;20053;-79
2022/06/28 06:20:02;;;;;;;0.40;0.40;;;;;;;14.03;100.00;99677.88;4961546;28;20034;-80
2022/06/28 06:22:29;;;;;;;0.40;0.40;;;;;;;14.66;100.00;99659.63;4958499;28;20073;-80
2022/06/28 06:24:55;;;;;;;0.50;0.50;;;;;;;16.58;100.00;99666.25;4965967;28;20057;-81
2022/06/28 06:27:21;;;;;;;0.50;0.50;;;;;;;17.79;99.17;99675.97;4987062;28;20038;-79
2022/06/28 06:29:46;;;;;;;0.45;0.45;;;;;;;18.44;93.75;99669.78;4979891;28;20042;-79
2022/06/28 06:32:12;;;;;;;0.50;0.50;;;;;;;18.86;90.24;99671.06;4966096;28;20066;-80
2022/06/28 06:34:38;;;;;;;0.50;0.50;;;;;;;19.16;87.91;99673.28;4993978;28;20105;-80
2022/06/28 06:37:04;;;;;;;0.40;0.40;;;;;;;19.42;87.32;99677.00;4955012;28;20042;-80
2022/06/28 06:39:30;;;;;;;0.50;0.50;;;;;;;19.84;85.18;99678.16;4989467;28;20491;-80
2022/06/28 06:41:55;;;;;;;0.50;0.50;;;;;;;20.08;82.95;99675.84;4977480;28;20045;-81
2022/06/28 06:44:21;;;;;;;0.50;0.50;;;;;;;20.36;81.60;99674.63;4977552;28;20030;-78
2022/06/28 06:46:46;;;;;;;0.50;0.50;;;;;;;20.28;82.49;99675.13;4987155;28;20027;-80
2022/06/28 06:49:17;;;;;;;0.30;0.30;;;;;;;19.25;85.23;99670.88;4980469;28;20117;-80
2022/06/28 06:51:44;;;;;;;0.40;0.40;;;;;;;18.66;88.80;99674.38;4987580;28;20031;-78
2022/06/28 06:54:13;;;;;;;0.50;0.50;;;;;;;19.69;85.36;99678.91;4980754;28;20033;-78
2022/06/28 06:56:40;;;;;;;0.40;0.40;;;;;;;19.54;84.42;99676.84;4978670;28;20026;-80
2022/06/28 06:59:07;;;;;;;0.50;0.50;;;;;;;20.26;82.84;99671.84;4976388;28;20039;-79
2022/06/28 07:01:33;;;;;;;0.55;0.55;;;;;;;21.20;80.46;99678.13;4984695;28;20042;-78
2022/06/28 07:04:00;;;;;;;0.50;0.50;;;;;;;21.76;77.88;99674.56;4958733;28;20046;-77
2022/06/28 07:06:26;;;;;;;0.50;0.50;;;;;;;20.75;79.65;99675.03;4950830;28;20034;-80
2022/06/28 07:08:52;;;;;;;0.40;0.40;;;;;;;19.89;81.96;99667.28;4967263;28;20037;-80
2022/06/28 07:11:18;;;;;;;1.17;0.65;;;;;;;18.39;89.73;99656.09;4965926;28;20031;-80
2022/06/28 07:13:43;;;;;;;0.50;0.50;;;;;;;17.13;95.68;99657.53;4967768;28;20092;-78
2022/06/28 07:16:09;;;;;;;0.98;0.65;;;;;;;16.23;100.00;99659.06;4970426;28;20068;-80
2022/06/28 07:18:35;;;;;;;0.57;0.35;;;;;;;15.78;100.00;99651.59;4981565;28;20053;-79
2022/06/28 07:21:00;;;;;;;0.43;0.43;;;;;;;15.75;100.00;99654.78;4955303;28;20041;-81
2022/06/28 07:23:26;;;;;;;0.65;0.65;;;;;;;16.07;100.00;99657.09;4958722;28;20048;-80
2022/06/28 07:25:52;;;;;;;1.75;1.00;;;;;;;18.22;92.73;99648.00;4970135;28;20481;-81
2022/06/28 07:28:18;;;;;;;2.40;0.90;;;;;;;19.71;84.93;99660.34;4948478;28;20042;-80
2022/06/28 07:30:44;;;;;;;4.75;1.60;;;;;;;20.85;78.60;99653.22;4980074;28;20046;-81
2022/06/28 07:33:10;;;;;;;8.80;1.90;;;;;;;20.24;81.38;99661.16;4986796;28;20038;-81
2022/06/28 07:35:36;;;;;;;9.82;3.38;;;;;;;19.46;85.11;99650.06;4981323;28;20117;-82
2022/06/28 07:38:02;;;;;;;4.32;1.63;;;;;;;18.87;86.85;99656.38;4989174;28;20042;-81
2022/06/28 07:40:27;;;;;;;5.03;2.45;;;;;;;19.24;84.52;99642.00;4946972;28;20042;-80
2022/06/28 07:42:53;;;;;;;10.15;2.90;;;;;;;19.66;82.52;99649.38;4984859;28;20396;-81
2022/06/28 07:45:19;;;;;;;5.78;2.35;;;;;;;19.81;80.78;99637.78;4966660;28;20045;-81
2022/06/28 07:47:47;;;;;;;7.50;2.28;;;;;;;19.43;84.50;99647.88;4985588;28;20034;-80
2022/06/28 07:53:04;;;;;;;6.72;2.08;;;;;;;19.44;83.82;99641.31;4978848;28;20515;-81
2022/06/28 07:55:32;;;;;;;6.05;2.38;;;;;;;18.88;87.50;99628.88;4983831;28;20483;-80
2022/06/28 07:57:58;;;;;;;11.52;2.58;;;;;;;18.41;89.00;99626.72;4986547;28;20030;-82
2022/06/28 08:00:25;;;;;;;8.32;2.67;;;;;;;18.55;88.91;99632.59;4976921;28;20468;-81
2022/06/28 08:02:51;;;;;;;4.53;2.22;;;;;;;19.08;86.30;99627.44;4947621;28;20461;-82
2022/06/28 08:05:20;;;;;;;8.60;2.78;;;;;;;19.84;84.04;99629.88;4987851;28;20040;-82
2022/06/28 08:07:47;;;;;;;6.65;2.35;;;;;;;20.02;81.23;99625.88;4984683;28;20453;-83
2022/06/28 08:10:14;;;;;;;8.60;1.95;;;;;;;19.57;82.48;99627.22;4959397;28;20070;-81
2022/06/28 08:12:40;;;;;;;7.60;1.85;;;;;;;19.59;83.64;99633.25;4959961;28;20761;-80
2022/06/28 08:15:07;;;;;;;4.68;2.00;;;;;;;19.74;84.39;99644.28;4974711;28;20022;-80
2022/06/28 08:17:33;;;;;;;8.88;2.50;;;;;;;20.01;81.08;99635.16;4977139;28;20042;-81
2022/06/28 08:20:02;;;;;;;7.68;2.60;;;;;;;19.22;86.52;99634.06;4980286;28;20037;-81
2022/06/28 08:22:28;;;;;;;8.82;2.70;;;;;;;18.02;89.93;99621.38;4977706;28;20034;-82
2022/06/28 08:24:53;;;;;;;10.68;2.75;;;;;;;17.22;92.12;99627.22;4983072;28;20040;-82
2022/06/28 08:27:22;;;;;;;10.10;2.53;;;;;;;16.63;95.88;99628.38;4960167;28;20034;-81
2022/06/28 08:29:49;;;;;;;6.57;2.03;;;;;;;16.30;96.78;99617.41;4972468;28;20602;-83
2022/06/28 08:32:17;;;;;;;8.43;2.13;;;;;;;15.99;98.44;99631.19;4968745;28;20404;-82
2022/06/28 08:34:43;;;;;;;13.38;3.33;;;;;;;15.87;100.00;99633.06;4949642;28;20044;-81
2022/06/28 08:37:11;;;;;;;11.02;2.47;;;;;;;15.93;100.00;99632.16;4951669;28;20050;-83
2022/06/28 08:39:37;;;;;;;25.85;3.13;;;;;;;15.85;100.00;99629.81;4980740;28;20038;-82
2022/06/28 08:42:05;;;;;;;7.22;2.42;;;;;;;15.60;100.00;99624.59;4985842;28;20030;-82
2022/06/28 08:44:36;;;;;;;12.60;2.85;;;;;;;15.33;100.00;99618.84;4951527;28;20088;-84
2022/06/28 08:47:03;;;;;;;12.23;3.08;;;;;;;15.03;100.00;99619.75;4955026;28;20519;-80
2022/06/28 08:49:49;;;;;;;3.47;1.67;;;;;;;15.00;100.00;99628.31;4980070;28;20050;-80
2022/06/28 08:52:16;;;;;;;8.43;2.65;;;;;;;14.90;100.00;99628.09;4963598;28;20046;-81
2022/06/28 08:54:45;;;;;;;8.73;2.72;;;;;;;14.71;100.00;99621.88;4984326;28;20030;-81
2022/06/28 08:57:11;;;;;;;10.95;2.50;;;;;;;14.60;100.00;99630.78;4971790;28;20081;-81
2022/06/28 08:59:36;;;;;;;8.23;2.70;;;;;;;14.46;100.00;99632.84;4972550;28;20101;-81
2022/06/28 09:02:06;;;;;;;8.43;2.10;;;;;;;14.38;100.00;99625.84;4970169;28;20166;-81
2022/06/28 09:04:32;;;;;;;19.40;3.25;;;;;;;14.27;100.00;99621.22;4999264;28;20093;-82
2022/06/28 09:06:59;;;;;;;13.77;2.95;;;;;;;14.28;100.00;99625.56;4988810;28;20039;-79
2022/06/28 09:09:25;;;;;;;14.20;3.08;;;;;;;14.50;100.00;99624.03;4976053;28;20045;-81
2022/06/28 09:11:54;;;;;;;9.45;2.70;;;;;;;14.90;100.00;99626.19;4993682;28;20037;-82
2022/06/28 09:14:30;;;;;;;11.60;2.40;;;;;;;14.99;100.00;99626.66;4961053;28;20042;-82
2022/06/28 09:16:57;;;;;;;8.32;2.15;;;;;;;14.95;99.73;99617.34;4994151;28;20038;-83
2022/06/28 09:19:40;;;;;;;15.25;3.60;;;;;;;14.86;99.57;99610.66;4975517;28;20041;-83
2022/06/28 09:22:06;;;;;;;9.20;3.28;;;;;;;14.84;99.57;99624.38;4997249;28;20034;-81
2022/06/28 09:24:33;;;;;;;14.55;3.65;;;;;;;14.77;97.08;99623.69;4982830;28;20383;-84
2022/06/28 09:27:01;;;;;;;15.20;2.90;;;;;;;14.75;97.10;99627.69;4992815;28;20125;-85
2022/06/28 09:29:44;;;;;;;12.93;4.03;;;;;;;14.84;96.25;99613.56;4976716;28;20053;-81
2022/06/28 09:32:10;;;;;;;9.35;2.72;;;;;;;14.98;94.86;99606.09;4991288;28;20507;-82
2022/06/28 09:35:11;;;;;;;7.97;2.42;;;;;;;14.86;94.16;99610.66;4977701;28;20030;-83
2022/06/28 09:37:52;;;;;;;9.52;1.88;;;;;;;14.65;94.01;99617.41;4957376;28;20141;-84
2022/06/28 09:40:18;;;;;;;7.93;1.88;;;;;;;14.55;93.73;99620.66;4993748;28;20032;-81
2022/06/28 09:42:46;;;;;;;6.85;1.40;;;;;;;14.35;94.46;99601.97;4992304;28;20041;-81
2022/06/28 09:45:16;;;;;;;4.50;1.48;;;;;;;14.55;93.90;99606.31;4977075;28;20035;-83
2022/06/28 09:47:44;;;;;;;5.43;1.63;;;;;;;14.81;92.78;99616.75;4991860;28;20034;-82
2022/06/28 09:50:20;;;;;;;4.78;1.70;;;;;;;15.11;90.07;99619.41;4976644;28;20053;-81
2022/06/28 09:52:46;;;;;;;5.22;2.08;;;;;;;15.49;87.97;99620.84;4958378;28;20038;-85
2022/06/28 09:55:14;;;;;;;5.75;2.13;;;;;;;16.15;84.62;99631.50;4990497;28;20054;-84
2022/06/28 09:57:45;;;;;;;4.25;1.17;;;;;;;16.79;79.32;99583.34;4991690;28;20034;-87
2022/06/28 10:00:15;;;;;;;6.13;1.83;;;;;;;17.16;77.33;99604.59;4987412;28;20117;-85
2022/06/28 10:02:42;;;;;;;3.08;1.23;;;;;;;17.32;76.72;99617.34;4974304;28;20476;-85
2022/06/28 10:05:11;;;;;;;3.92;1.48;;;;;;;17.37;76.34;99624.75;4969858;28;20077;-84
2022/06/28 10:07:45;;;;;;;4.53;1.25;;;;;;;17.24;77.55;99619.66;4990744;28;20034;-84
2022/06/28 10:10:17;;;;;;;4.40;1.23;;;;;;;17.16;76.69;99601.88;4972691;28;20038;-84
2022/06/28 10:15:33;;;;;;;3.22;1.00;;;;;;;17.81;73.47;99586.84;4986839;28;20034;-85
2022/06/28 10:18:13;;;;;;;1.58;1.00;;;;;;;19.93;67.14;99602.94;4950146;28;20133;-86
2022/06/28 10:20:43;;;;;;;5.55;1.60;;;;;;;20.42;64.69;99603.34;4986859;28;20060;-85
2022/06/28 10:23:37;;;;;;;2.25;1.50;;;;;;;21.83;59.61;99609.41;4971053;28;20038;-85
2022/06/28 10:26:13;;;;;;;3.47;1.55;;;;;;;24.11;51.11;99596.22;4978080;28;20041;-83
2022/06/28 10:28:45;;;;;;;3.15;1.58;;;;;;;25.60;45.50;99608.53;5012030;28;20061;-84
2022/06/28 10:31:23;;;;;;;4.15;1.70;;;;;;;27.12;41.49;99608.31;4994203;28;20038;-81
2022/06/28 10:33:56;;;;;;;2.58;1.02;;;;;;;26.36;42.16;99599.84;4970179;28;20045;-86
2022/06/28 10:36:24;;;;;;;4.07;1.20;;;;;;;23.82;46.75;99586.16;4984862;28;20034;-84
2022/06/28 10:39:06;;;;;;;2.97;1.10;;;;;;;21.56;52.69;99568.72;4975068;28;20030;-85
2022/06/28 10:41:38;;;;;;;3.53;1.30;;;;;;;21.92;53.15;99602.28;4974308;28;20041;-85
2022/06/28 10:44:20;;;;;;;2.22;0.90;;;;;;;20.95;55.94;99578.59;4982458;28;20039;-82
2022/06/28 10:47:09;;;;;;;4.60;1.48;;;;;;;20.57;58.66;99580.78;4988271;28;20464;-85
2022/06/28 10:49:50;;;;;;;2.47;0.95;;;;;;;19.57;61.74;99585.53;4989293;28;20138;-87
2022/06/28 10:52:20;;;;;;;3.03;1.20;;;;;;;18.92;64.36;99592.94;4991958;28;20042;-82
2022/06/28 10:54:52;;;;;;;4.63;1.17;;;;;;;18.07;66.88;99579.78;4954018;28;20409;-84
2022/06/28 10:57:24;;;;;;;5.82;1.38;;;;;;;18.19;69.17;99615.84;4988407;28;20034;-84
2022/06/28 10:59:51;;;;;;;4.10;1.40;;;;;;;17.45;73.65;99605.31;4957201;28;20136;-84
2022/06/28 11:02:18;;;;;;;2.15;1.17;;;;;;;17.46;73.71;99612.38;4975397;28;20030;-83
2022/06/28 11:04:44;;;;;;;3.83;1.27;;;;;;;19.39;69.09;99619.47;4990877;28;20030;-86
2022/06/28 11:07:19;;;;;;;3.72;2.00;;;;;;;20.05;68.24;99616.34;4986185;28;20440;-87
2022/06/28 11:09:51;;;;;;;4.53;1.08;;;;;;;19.82;68.31;99620.31;4979433;28;20042;-85
2022/06/28 11:12:18;;;;;;;6.43;1.50;;;;;;;18.46;71.89;99621.31;4989816;28;20038;-85
2022/06/28 11:14:48;;;;;;;5.22;1.35;;;;;;;17.58;76.99;99604.16;4967719;28;20176;-86
2022/06/28 11:17:20;;;;;;;6.70;1.40;;;;;;;17.05;78.44;99619.09;4988189;28;20072;-86
2022/06/28 11:19:53;;;;;;;5.68;1.77;;;;;;;17.51;77.21;99631.50;4987683;28;20141;-85
2022/06/28 11:22:48;;;;;;;3.53;1.50;;;;;;;17.61;78.15;99625.38;4989233;28;20045;-86
2022/06/28 11:25:24;;;;;;;3.70;1.83;;;;;;;20.71;66.10;99607.56;4991085;28;20030;-84
2022/06/28 11:27:56;;;;;;;4.55;1.70;;;;;;;21.18;63.31;99625.63;4983744;28;20030;-84
2022/06/28 11:30:27;;;;;;;4.72;2.08;;;;;;;19.91;67.37;99625.00;4989371;28;20033;-81
2022/06/28 11:32:57;;;;;;;4.78;1.88;;;;;;;19.23;70.70;99627.53;4979739;28;20034;-85
2022/06/28 11:35:28;;;;;;;5.28;1.60;;;;;;;19.23;70.88;99638.44;5001066;28;20065;-85
2022/06/28 11:38:06;;;;;;;6.38;1.83;;;;;;;18.45;71.53;99603.38;4987702;28;20100;-84
2022/06/28 11:40:47;;;;;;;6.50;1.73;;;;;;;18.05;74.04;99624.63;4987255;28;20030;-82
2022/06/28 11:43:18;;;;;;;4.75;1.40;;;;;;;17.79;73.56;99622.41;4985582;28;20041;-85
2022/06/28 11:45:46;;;;;;;4.60;1.38;;;;;;;17.89;73.83;99615.47;4989325;28;20157;-83